createdAt,value
2022-09-09T00:02:22.876Z,99325.84
2022-09-09T00:05:05.751Z,99335.94
2022-09-09T00:07:49.474Z,99339.25
2022-09-09T00:10:43.019Z,99329.63
2022-09-09T00:13:47.884Z,99334.25
2022-09-09T00:16:25.260Z,99334.03
2022-09-09T00:19:26.001Z,99339.25
2022-09-09T00:22:18.651Z,99335.06
2022-09-09T00:24:57.840Z,99343.25
2022-09-09T00:27:40.912Z,99337.34
2022-09-09T00:30:21.518Z,99341.59
2022-09-09T00:33:03.919Z,99345.31
2022-09-09T00:35:35.844Z,99340.69
2022-09-09T00:38:16.192Z,99339.63
2022-09-09T00:40:54.019Z,99342.97
2022-09-09T00:43:41.652Z,99335.97
2022-09-09T00:46:51.782Z,99331.13
2022-09-09T00:49:46.939Z,99339.69
2022-09-09T00:52:53.563Z,99336.97
2022-09-09T00:55:38.451Z,99341.13
2022-09-09T00:58:09.464Z,99344.59
2022-09-09T01:00:46.442Z,99337.22
2022-09-09T01:03:25.572Z,99347.09
2022-09-09T01:06:38.040Z,99336.41
2022-09-09T01:09:28.112Z,99345.19
2022-09-09T01:12:13.685Z,99350.19
2022-09-09T01:14:45.481Z,99340.47
2022-09-09T01:17:25.530Z,99345.47
2022-09-09T01:20:14.798Z,99345.00
2022-09-09T01:23:09.321Z,99339.41
2022-09-09T01:25:45.049Z,99345.00
2022-09-09T01:28:20.461Z,99339.53
2022-09-09T01:30:47.287Z,99350.44
2022-09-09T01:33:19.221Z,99347.50
2022-09-09T01:36:07.828Z,99346.66
2022-09-09T01:38:36.351Z,99343.72
2022-09-09T01:41:04.402Z,99349.88
2022-09-09T01:43:31.564Z,99352.00
2022-09-09T01:46:03.300Z,99347.88
2022-09-09T01:48:31.567Z,99351.56
2022-09-09T01:50:58.662Z,99351.34
2022-09-09T01:53:25.857Z,99345.50
2022-09-09T01:56:01.609Z,99352.16
2022-09-09T01:58:40.505Z,99355.34
2022-09-09T02:01:29.513Z,99350.25
2022-09-09T02:03:59.163Z,99345.88
2022-09-09T02:06:26.295Z,99344.78
2022-09-09T02:09:03.619Z,99339.81
2022-09-09T02:11:32.414Z,99349.78
2022-09-09T02:14:29.779Z,99351.44
2022-09-09T02:17:23.595Z,99349.44
2022-09-09T02:20:01.245Z,99359.75
2022-09-09T02:22:31.883Z,99358.56
2022-09-09T02:25:01.090Z,99356.19
2022-09-09T02:27:29.176Z,99352.28
2022-09-09T02:29:58.573Z,99355.72
2022-09-09T02:32:26.591Z,99362.34
2022-09-09T02:35:05.451Z,99357.16
2022-09-09T02:37:40.737Z,99358.91
2022-09-09T02:40:11.792Z,99366.41
2022-09-09T02:42:48.076Z,99359.50
2022-09-09T02:45:21.355Z,99361.66
2022-09-09T02:48:31.048Z,99361.50
2022-09-09T02:51:32.275Z,99365.28
2022-09-09T02:54:25.453Z,99357.97
2022-09-09T02:56:57.359Z,99358.06
2022-09-09T02:59:26.517Z,99359.97
2022-09-09T03:01:54.705Z,99362.47
2022-09-09T03:04:21.733Z,99359.03
2022-09-09T03:06:48.644Z,99362.34
2022-09-09T03:09:15.389Z,99363.88
2022-09-09T03:11:42.283Z,99366.63
2022-09-09T03:14:09.583Z,99369.56
2022-09-09T03:16:36.411Z,99371.03
2022-09-09T03:19:03.274Z,99377.44
2022-09-09T03:21:30.764Z,99369.25
2022-09-09T03:23:58.422Z,99375.16
2022-09-09T03:26:25.639Z,99375.41
2022-09-09T03:28:53.000Z,99374.22
2022-09-09T03:31:20.746Z,99371.72
2022-09-09T03:33:47.623Z,99381.56
2022-09-09T03:36:16.043Z,99380.50
2022-09-09T03:38:43.035Z,99383.47
2022-09-09T03:41:09.878Z,99381.34
2022-09-09T03:43:37.634Z,99379.66
2022-09-09T03:46:04.590Z,99381.81
2022-09-09T03:48:31.423Z,99381.13
2022-09-09T03:51:01.911Z,99377.53
2022-09-09T03:53:29.957Z,99383.84
2022-09-09T03:56:01.063Z,99387.25
2022-09-09T03:58:29.150Z,99379.66
2022-09-09T04:00:59.373Z,99390.00
2022-09-09T04:03:28.210Z,99388.34
2022-09-09T04:05:58.117Z,99387.84
2022-09-09T04:08:28.043Z,99389.75
2022-09-09T04:10:59.555Z,99394.13
2022-09-09T04:13:27.620Z,99391.06
2022-09-09T04:16:00.386Z,99391.06
2022-09-09T04:18:29.403Z,99386.66
2022-09-09T04:20:58.478Z,99394.84
2022-09-09T04:23:29.964Z,99400.53
2022-09-09T04:25:58.924Z,99398.63
2022-09-09T04:28:30.787Z,99394.41
2022-09-09T04:30:58.088Z,99400.91
2022-09-09T04:33:28.672Z,99404.94
2022-09-09T04:35:55.715Z,99403.03
2022-09-09T04:38:24.130Z,99407.06
2022-09-09T04:40:53.206Z,99405.16
2022-09-09T04:43:20.137Z,99415.47
2022-09-09T04:45:49.607Z,99407.50
2022-09-09T04:48:16.882Z,99412.53
2022-09-09T04:50:43.639Z,99412.75
2022-09-09T04:53:11.336Z,99415.47
2022-09-09T04:55:38.759Z,99415.47
2022-09-09T04:58:09.722Z,99408.34
2022-09-09T05:00:37.798Z,99423.19
2022-09-09T05:03:09.941Z,99413.34
2022-09-09T05:05:37.417Z,99418.56
2022-09-09T05:08:06.561Z,99424.63
2022-09-09T05:10:34.667Z,99432.00
2022-09-09T05:13:01.532Z,99431.63
2022-09-09T05:15:28.355Z,99434.09
2022-09-09T05:18:02.192Z,99428.88
2022-09-09T05:20:29.496Z,99430.16
2022-09-09T05:22:57.997Z,99438.22
2022-09-09T05:25:27.159Z,99439.88
2022-09-09T05:27:54.890Z,99433.38
2022-09-09T05:30:25.910Z,99437.75
2022-09-09T05:32:52.735Z,99439.44
2022-09-09T05:35:20.331Z,99439.44
2022-09-09T05:37:47.244Z,99444.03
2022-09-09T05:40:14.215Z,99439.88
2022-09-09T05:42:42.046Z,99440.97
2022-09-09T05:45:10.311Z,99436.56
2022-09-09T05:47:38.486Z,99444.75
2022-09-09T05:50:06.222Z,99435.72
2022-09-09T05:52:33.787Z,99437.84
2022-09-09T05:55:01.140Z,99447.91
2022-09-09T05:57:28.091Z,99450.66
2022-09-09T05:59:54.886Z,99446.03
2022-09-09T06:02:22.016Z,99446.88
2022-09-09T06:04:48.894Z,99449.59
2022-09-09T06:07:15.925Z,99456.03
2022-09-09T06:09:42.747Z,99456.25
2022-09-09T06:12:10.160Z,99458.53
2022-09-09T06:14:38.119Z,99465.19
2022-09-09T06:17:05.064Z,99475.78
2022-09-09T06:19:32.064Z,99467.59
2022-09-09T06:21:59.721Z,99471.06
2022-09-09T06:24:27.141Z,99476.44
2022-09-09T06:26:55.332Z,99475.59
2022-09-09T06:29:22.201Z,99487.69
2022-09-09T06:31:49.010Z,99492.34
2022-09-09T06:34:16.375Z,99486.44
2022-09-09T06:36:43.658Z,99493.69
2022-09-09T06:39:14.831Z,99499.75
2022-09-09T06:41:43.919Z,99493.81
2022-09-09T06:44:13.020Z,99503.59
2022-09-09T06:46:41.066Z,99505.84
2022-09-09T06:49:10.241Z,99492.31
2022-09-09T06:51:44.039Z,99488.53
2022-09-09T06:54:12.830Z,99496.72
2022-09-09T06:56:43.008Z,99500.66
2022-09-09T06:59:11.161Z,99499.84
2022-09-09T07:01:50.283Z,99514.53
2022-09-09T07:04:19.434Z,99510.75
2022-09-09T07:06:47.573Z,99510.75
2022-09-09T07:09:17.377Z,99513.22
2022-09-09T07:11:48.474Z,99516.94
2022-09-09T07:14:16.128Z,99518.97
2022-09-09T07:16:44.731Z,99521.06
2022-09-09T07:19:13.726Z,99517.47
2022-09-09T07:21:43.567Z,99520.72
2022-09-09T07:24:11.858Z,99525.72
2022-09-09T07:26:40.469Z,99531.66
2022-09-09T07:29:09.243Z,99529.66
2022-09-09T07:31:39.799Z,99533.66
2022-09-09T07:34:07.132Z,99527.38
2022-09-09T07:36:39.027Z,99530.09
2022-09-09T07:39:12.364Z,99537.34
2022-09-09T07:41:41.759Z,99536.81
2022-09-09T07:44:12.274Z,99541.91
2022-09-09T07:46:42.975Z,99541.53
2022-09-09T07:49:11.858Z,99542.50
2022-09-09T07:51:45.642Z,99547.75
2022-09-09T07:54:15.893Z,99556.06
2022-09-09T07:56:43.720Z,99556.06
2022-09-09T07:59:11.413Z,99564.38
2022-09-09T08:01:44.739Z,99567.84
2022-09-09T08:04:18.279Z,99565.69
2022-09-09T08:06:54.036Z,99571.88
2022-09-09T08:09:21.999Z,99562.13
2022-09-09T08:11:49.244Z,99568.91
2022-09-09T08:14:16.315Z,99564.97
2022-09-09T08:16:47.667Z,99571.41
2022-09-09T08:19:16.345Z,99561.41
2022-09-09T08:21:45.063Z,99562.72
2022-09-09T08:24:13.076Z,99560.06
2022-09-09T08:26:43.509Z,99565.22
2022-09-09T08:29:12.832Z,99572.56
2022-09-09T08:31:49.113Z,99573.00
2022-09-09T08:34:16.468Z,99570.63
2022-09-09T08:36:46.102Z,99574.53
2022-09-09T08:39:16.665Z,99577.63
2022-09-09T08:42:03.501Z,99581.81
2022-09-09T08:44:48.836Z,99579.78
2022-09-09T08:48:12.427Z,99580.88
2022-09-09T08:50:41.990Z,99579.44
2022-09-09T08:53:25.823Z,99581.56
2022-09-09T08:56:02.654Z,99584.44
2022-09-09T08:58:35.152Z,99587.75
2022-09-09T09:01:11.297Z,99600.00
2022-09-09T09:03:59.217Z,99596.88
2022-09-09T09:07:08.575Z,99598.78
2022-09-09T09:09:50.855Z,99605.97
2022-09-09T09:12:25.090Z,99605.97
2022-09-09T09:14:52.107Z,99613.81
2022-09-09T09:17:21.866Z,99611.97
2022-09-09T09:19:50.916Z,99611.97
2022-09-09T09:22:35.307Z,99623.97
2022-09-09T09:25:24.481Z,99629.56
2022-09-09T09:27:54.047Z,99626.94
2022-09-09T09:30:30.061Z,99630.94
2022-09-09T09:33:16.634Z,99631.13
2022-09-09T09:35:44.741Z,99631.22
2022-09-09T09:41:11.706Z,99641.53
2022-09-09T09:43:43.752Z,99648.53
2022-09-09T09:46:26.952Z,99649.13
2022-09-09T09:49:07.105Z,99648.28
2022-09-09T09:51:35.181Z,99659.19
2022-09-09T09:54:14.462Z,99654.22
2022-09-09T09:56:42.219Z,99659.84
2022-09-09T09:59:38.710Z,99664.34
2022-09-09T10:02:26.592Z,99664.84
2022-09-09T10:05:18.097Z,99662.50
2022-09-09T10:07:49.138Z,99663.66
2022-09-09T10:10:36.427Z,99675.25
2022-09-09T10:13:56.259Z,99669.69
2022-09-09T10:16:56.770Z,99663.69
2022-09-09T10:19:38.563Z,99673.59
2022-09-09T10:22:28.999Z,99669.69
2022-09-09T10:25:13.818Z,99675.66
2022-09-09T10:28:26.817Z,99674.97
2022-09-09T10:31:18.706Z,99677.72
2022-09-09T10:34:19.268Z,99680.97
2022-09-09T10:36:50.610Z,99691.38
2022-09-09T10:39:40.690Z,99687.97
2022-09-09T10:42:20.542Z,99692.19
2022-09-09T10:45:15.302Z,99692.78
2022-09-09T10:48:04.003Z,99693.94
2022-09-09T10:54:07.076Z,99689.22
2022-09-09T10:56:35.350Z,99698.69
2022-09-09T10:59:10.303Z,99696.78
2022-09-09T11:02:29.231Z,99691.66
2022-09-09T11:05:21.629Z,99693.88
2022-09-09T11:08:13.773Z,99695.97
2022-09-09T11:11:13.055Z,99701.09
2022-09-09T11:14:02.933Z,99693.47
2022-09-09T11:16:53.637Z,99693.22
2022-09-09T11:19:33.243Z,99698.66
2022-09-09T11:22:02.510Z,99691.09
2022-09-09T11:25:21.900Z,99699.31
2022-09-09T11:28:18.930Z,99702.69
2022-09-09T11:31:29.545Z,99707.72
2022-09-09T11:34:17.484Z,99702.84
2022-09-09T11:37:33.834Z,99705.56
2022-09-09T11:40:24.708Z,99710.47
2022-09-09T11:43:06.482Z,99710.38
2022-09-09T11:45:36.582Z,99713.19
2022-09-09T11:48:07.115Z,99710.47
2022-09-09T11:50:37.926Z,99713.75
2022-09-09T11:53:24.074Z,99717.16
2022-09-09T11:56:15.695Z,99720.59
2022-09-09T11:59:04.829Z,99712.81
2022-09-09T12:01:35.721Z,99720.41
2022-09-09T12:04:21.308Z,99717.50
2022-09-09T12:06:57.647Z,99711.84
2022-09-09T12:09:34.719Z,99723.47
2022-09-09T12:12:14.258Z,99719.09
2022-09-09T12:14:46.614Z,99708.75
2022-09-09T12:17:16.381Z,99717.91
2022-09-09T12:19:43.391Z,99714.84
2022-09-09T12:22:40.845Z,99709.34
2022-09-09T12:26:02.090Z,99710.91
2022-09-09T12:28:58.335Z,99715.91
2022-09-09T12:31:48.129Z,99712.53
2022-09-09T12:34:34.786Z,99713.63
2022-09-09T12:37:20.375Z,99714.19
2022-09-09T12:39:56.708Z,99720.28
2022-09-09T12:42:24.708Z,99720.91
2022-09-09T12:44:59.758Z,99724.31
2022-09-09T12:47:42.685Z,99729.00
2022-09-09T12:50:29.107Z,99723.84
2022-09-09T12:52:59.931Z,99720.03
2022-09-09T12:55:34.875Z,99727.72
2022-09-09T12:58:05.891Z,99730.53
2022-09-09T13:00:34.915Z,99728.59
2022-09-09T13:03:18.200Z,99731.63
2022-09-09T13:05:44.972Z,99732.75
2022-09-09T13:08:14.788Z,99721.72
2022-09-09T13:10:53.795Z,99724.75
2022-09-09T13:13:31.012Z,99723.94
2022-09-09T13:16:00.767Z,99722.63
2022-09-09T13:18:32.225Z,99727.06
2022-09-09T13:20:59.432Z,99722.94
2022-09-09T13:23:36.323Z,99727.34
2022-09-09T13:26:08.894Z,99727.91
2022-09-09T13:28:39.260Z,99724.00
2022-09-09T13:31:25.092Z,99727.25
2022-09-09T13:33:54.234Z,99740.19
2022-09-09T13:36:32.085Z,99738.56
2022-09-09T13:39:01.263Z,99734.97
2022-09-09T13:41:36.114Z,99733.84
2022-09-09T13:44:05.221Z,99735.78
2022-09-09T13:46:42.261Z,99742.69
2022-09-09T13:49:11.924Z,99743.78
2022-09-09T13:51:40.827Z,99741.03
2022-09-09T13:54:11.542Z,99748.44
2022-09-09T13:56:41.142Z,99746.00
2022-09-09T13:59:14.249Z,99749.31
2022-09-09T14:01:41.127Z,99740.44
2022-09-09T14:04:09.780Z,99741.03
2022-09-09T14:06:40.377Z,99748.72
2022-09-09T14:09:16.783Z,99752.56
2022-09-09T14:11:45.295Z,99760.22
2022-09-09T14:14:12.295Z,99755.19
2022-09-09T14:16:39.113Z,99777.69
2022-09-09T14:19:06.054Z,99777.97
2022-09-09T14:21:33.745Z,99789.31
2022-09-09T14:24:00.533Z,99783.69
2022-09-09T14:26:27.490Z,99790.91
2022-09-09T14:28:56.027Z,99798.53
2022-09-09T14:31:25.223Z,99810.25
2022-09-09T14:33:53.768Z,99817.97
2022-09-09T14:36:20.968Z,99821.13
2022-09-09T14:38:48.368Z,99829.34
2022-09-09T14:41:18.202Z,99824.78
2022-09-09T14:43:46.291Z,99831.31
2022-09-09T14:46:18.018Z,99833.72
2022-09-09T14:48:46.423Z,99837.16
2022-09-09T14:51:20.881Z,99838.13
2022-09-09T14:53:48.243Z,99845.59
2022-09-09T14:56:21.330Z,99835.00
2022-09-09T14:58:51.752Z,99828.81
2022-09-09T15:01:21.635Z,99832.78
2022-09-09T15:03:55.448Z,99840.41
2022-09-09T15:06:24.291Z,99830.78
2022-09-09T15:08:53.868Z,99828.84
2022-09-09T15:11:22.198Z,99831.84
2022-09-09T15:13:53.257Z,99829.19
2022-09-09T15:16:21.713Z,99827.25
2022-09-09T15:18:54.268Z,99834.03
2022-09-09T15:21:24.197Z,99844.59
2022-09-09T15:23:51.054Z,99839.06
2022-09-09T15:26:18.970Z,99838.50
2022-09-09T15:28:48.455Z,99842.25
2022-09-09T15:31:27.968Z,99836.09
2022-09-09T15:34:04.502Z,99843.53
2022-09-09T15:36:42.305Z,99850.63
2022-09-09T15:39:13.995Z,99849.19
2022-09-09T15:41:41.239Z,99854.19
2022-09-09T15:44:08.447Z,99861.66
2022-09-09T15:46:44.818Z,99861.50
2022-09-09T15:49:19.417Z,99862.56
2022-09-09T15:51:48.886Z,99854.31
2022-09-09T15:54:19.573Z,99862.75
2022-09-09T15:56:49.868Z,99864.06
2022-09-09T15:59:17.229Z,99869.06
2022-09-09T16:01:45.168Z,99866.00
2022-09-09T16:04:12.811Z,99852.44
2022-09-09T16:06:40.346Z,99868.16
2022-09-09T16:09:08.971Z,99862.22
2022-09-09T16:11:39.077Z,99871.16
2022-09-09T16:14:07.794Z,99870.41
2022-09-09T16:16:36.362Z,99872.16
2022-09-09T16:19:14.081Z,99864.97
2022-09-09T16:21:50.264Z,99864.25
2022-09-09T16:24:20.612Z,99863.25
2022-09-09T16:26:53.963Z,99868.31
2022-09-09T16:29:22.876Z,99871.91
2022-09-09T16:31:51.617Z,99863.97
2022-09-09T16:34:19.838Z,99873.56
2022-09-09T16:36:48.291Z,99882.13
2022-09-09T16:39:24.188Z,99873.50
2022-09-09T16:41:51.208Z,99876.88
2022-09-09T16:44:19.909Z,99872.97
2022-09-09T16:46:49.919Z,99882.56
2022-09-09T16:49:17.404Z,99889.72
2022-09-09T16:51:48.181Z,99891.06
2022-09-09T16:54:18.241Z,99886.66
2022-09-09T16:56:47.769Z,99891.56
2022-09-09T16:59:19.863Z,99903.75
2022-09-09T17:01:50.568Z,99905.91
2022-09-09T17:04:25.385Z,99896.81
2022-09-09T17:06:54.928Z,99901.00
2022-09-09T17:09:23.920Z,99898.41
2022-09-09T17:11:53.465Z,99889.75
2022-09-09T17:14:22.504Z,99896.81
2022-09-09T17:16:50.314Z,99909.22
2022-09-09T17:19:17.686Z,99915.09
2022-09-09T17:22:12.517Z,99927.41
2022-09-09T17:24:32.120Z,99925.66
2022-09-09T17:26:58.990Z,99939.44
2022-09-09T17:29:26.443Z,99943.78
2022-09-09T17:31:53.940Z,99960.47
2022-09-09T17:34:20.851Z,99953.81
2022-09-09T17:36:48.162Z,99954.13
2022-09-09T17:39:15.110Z,99949.22
2022-09-09T17:41:42.176Z,99956.84
2022-09-09T17:44:10.905Z,99953.03
2022-09-09T17:46:43.571Z,99960.91
2022-09-09T17:49:14.656Z,99957.69
2022-09-09T17:51:43.081Z,99954.00
2022-09-09T17:54:14.245Z,99954.00
2022-09-09T17:56:42.427Z,99966.97
2022-09-09T17:59:12.301Z,99960.44
2022-09-09T18:01:42.179Z,99950.31
2022-09-09T18:04:11.579Z,99955.66
2022-09-09T18:06:44.792Z,99952.81
2022-09-09T18:09:16.715Z,99951.59
2022-09-09T18:11:47.845Z,99960.28
2022-09-09T18:14:18.816Z,99964.31
2022-09-09T18:16:47.211Z,99970.28
2022-09-09T18:19:19.590Z,99971.94
2022-09-09T18:21:47.330Z,99979.56
2022-09-09T18:24:18.637Z,99981.56
2022-09-09T18:26:45.999Z,99977.63
2022-09-09T18:29:18.388Z,99985.72
2022-09-09T18:31:45.172Z,99986.56
2022-09-09T18:34:14.860Z,99986.66
2022-09-09T18:36:45.091Z,99994.25
2022-09-09T18:39:15.305Z,100002.81
2022-09-09T18:41:46.785Z,99998.88
2022-09-09T18:44:18.024Z,100000.16
2022-09-09T18:46:45.552Z,100008.84
2022-09-09T18:49:15.389Z,100006.78
2022-09-09T18:51:45.279Z,100003.44
2022-09-09T18:54:34.448Z,100010.22
2022-09-09T18:57:01.992Z,100017.59
2022-09-09T18:59:29.399Z,100013.19
2022-09-09T19:01:56.682Z,100019.13
2022-09-09T19:04:25.446Z,100031.16
2022-09-09T19:06:58.250Z,100028.41
2022-09-09T19:09:33.914Z,100028.88
2022-09-09T19:12:02.216Z,100040.41
2022-09-09T19:14:30.163Z,100039.81
2022-09-09T19:16:57.131Z,100042.56
2022-09-09T19:19:32.183Z,100044.69
2022-09-09T19:22:00.063Z,100046.63
2022-09-09T19:24:32.029Z,100044.50
2022-09-09T19:27:04.539Z,100038.41
2022-09-09T19:29:35.031Z,100049.22
2022-09-09T19:32:42.750Z,100057.28
2022-09-09T19:34:51.731Z,100059.84
2022-09-09T19:37:19.046Z,100068.97
2022-09-09T19:39:47.504Z,100070.50
2022-09-09T19:42:14.687Z,100072.03
2022-09-09T19:44:41.723Z,100073.28
2022-09-09T19:47:08.565Z,100087.88
2022-09-09T19:49:37.330Z,100086.66
2022-09-09T19:52:04.880Z,100091.34
2022-09-09T19:54:32.245Z,100095.63
2022-09-09T19:57:00.073Z,100106.19
2022-09-09T19:59:27.746Z,100106.63
2022-09-09T20:01:56.976Z,100100.38
2022-09-09T20:04:24.220Z,100105.44
2022-09-09T20:06:52.247Z,100102.53
2022-09-09T20:09:20.557Z,100107.84
2022-09-09T20:11:49.060Z,100103.84
2022-09-09T20:14:17.229Z,100111.28
2022-09-09T20:16:45.863Z,100111.09
2022-09-09T20:19:16.334Z,100111.34
2022-09-09T20:21:49.660Z,100115.78
2022-09-09T20:24:23.278Z,100120.00
2022-09-09T20:26:51.297Z,100116.25
2022-09-09T20:29:20.031Z,100120.03
2022-09-09T20:31:48.351Z,100120.91
2022-09-09T20:34:19.226Z,100121.16
2022-09-09T20:36:47.236Z,100125.59
2022-09-09T20:39:17.400Z,100133.59
2022-09-09T20:41:46.240Z,100136.97
2022-09-09T20:44:17.015Z,100138.66
2022-09-09T20:46:50.640Z,100136.16
2022-09-09T20:49:20.799Z,100133.63
2022-09-09T20:51:50.573Z,100142.69
2022-09-09T20:54:23.916Z,100148.56
2022-09-09T20:56:53.355Z,100150.25
2022-09-09T20:59:29.156Z,100150.47
2022-09-09T21:01:57.235Z,100154.00
2022-09-09T21:04:25.261Z,100152.97
2022-09-09T21:06:52.844Z,100154.63
2022-09-09T21:09:23.311Z,100158.19
2022-09-09T21:11:50.983Z,100158.00
2022-09-09T21:14:17.840Z,100157.56
2022-09-09T21:16:44.904Z,100166.16
2022-09-09T21:19:12.345Z,100168.44
2022-09-09T21:21:39.359Z,100164.69
2022-09-09T21:24:06.568Z,100169.31
2022-09-09T21:26:33.392Z,100173.91
2022-09-09T21:29:00.179Z,100172.88
2022-09-09T21:31:28.662Z,100175.19
2022-09-09T21:33:57.764Z,100179.00
2022-09-09T21:36:25.528Z,100188.22
2022-09-09T21:38:52.314Z,100182.75
2022-09-09T21:41:19.593Z,100190.53
2022-09-09T21:43:52.801Z,100190.13
2022-09-09T21:46:20.135Z,100197.47
2022-09-09T21:48:46.975Z,100197.06
2022-09-09T21:51:17.035Z,100198.31
2022-09-09T21:53:44.829Z,100198.09
2022-09-09T21:56:16.227Z,100196.63
2022-09-09T21:58:43.556Z,100201.03
2022-09-09T22:01:14.893Z,100205.03
2022-09-09T22:03:42.836Z,100203.97
2022-09-09T22:06:14.833Z,100204.63
2022-09-09T22:08:42.823Z,100209.88
2022-09-09T22:11:22.673Z,100210.75
2022-09-09T22:13:49.915Z,100209.50
2022-09-09T22:16:20.901Z,100214.53
2022-09-09T22:18:58.138Z,100215.59
2022-09-09T22:21:27.301Z,100221.25
2022-09-09T22:24:01.682Z,100218.31
2022-09-09T22:26:32.924Z,100218.13
2022-09-09T22:28:59.772Z,100220.22
2022-09-09T22:31:28.588Z,100217.06
2022-09-09T22:33:56.069Z,100218.09
2022-09-09T22:36:23.348Z,100214.53
2022-09-09T22:38:53.875Z,100222.72
2022-09-09T22:41:21.117Z,100227.34
2022-09-09T22:43:48.402Z,100233.63
2022-09-09T22:46:15.593Z,100240.75
2022-09-09T22:48:43.364Z,100241.19
2022-09-09T22:51:14.236Z,100229.03
2022-09-09T22:53:43.242Z,100235.94
2022-09-09T22:56:18.572Z,100233.84
2022-09-09T22:58:47.191Z,100244.56
2022-09-09T23:01:19.468Z,100246.44
2022-09-09T23:03:47.760Z,100248.53
2022-09-09T23:06:24.936Z,100252.09
2022-09-09T23:08:58.482Z,100253.97
2022-09-09T23:11:30.538Z,100247.47
2022-09-09T23:14:00.974Z,100259.66
2022-09-09T23:16:38.477Z,100257.56
2022-09-09T23:19:10.199Z,100254.00
2022-09-09T23:21:39.314Z,100249.78
2022-09-09T23:24:08.671Z,100249.78
2022-09-09T23:26:35.461Z,100265.94
2022-09-09T23:29:02.616Z,100250.44
2022-09-09T23:31:33.864Z,100259.66
2022-09-09T23:34:01.989Z,100256.69
2022-09-09T23:36:30.221Z,100262.59
2022-09-09T23:38:59.263Z,100270.56
2022-09-09T23:41:27.148Z,100265.91
2022-09-09T23:43:54.559Z,100265.91
2022-09-09T23:46:28.692Z,100273.03
2022-09-09T23:48:57.628Z,100284.78
2022-09-09T23:51:28.274Z,100272.81
2022-09-09T23:53:57.660Z,100270.53
2022-09-09T23:56:31.915Z,100283.28
2022-09-09T23:58:58.825Z,100272.19
